createdAt,value
2018-01-17T00:01:53.865Z,5.60
2018-01-17T00:04:22.147Z,5.70
2018-01-17T00:06:50.456Z,5.70
2018-01-17T00:09:19.479Z,5.80
2018-01-17T00:11:47.753Z,5.70
2018-01-17T00:14:16.020Z,5.70
2018-01-17T00:19:13.711Z,5.80
2018-01-17T00:21:42.143Z,5.80
2018-01-17T00:24:10.368Z,5.80
2018-01-17T00:29:08.500Z,5.90
2018-01-17T00:31:38.263Z,5.90
2018-01-17T00:34:06.510Z,5.90
2018-01-17T00:36:34.820Z,5.90
2018-01-17T00:39:03.448Z,5.90
2018-01-17T00:46:31.078Z,5.90
2018-01-17T00:49:00.065Z,5.90
2018-01-17T00:51:28.336Z,6.00
2018-01-17T00:53:57.332Z,5.90
2018-01-17T00:56:26.692Z,6.00
2018-01-17T00:58:56.460Z,6.00
2018-01-17T01:01:25.834Z,5.90
2018-01-17T01:03:54.065Z,5.90
2018-01-17T01:06:24.327Z,5.90
2018-01-17T01:08:52.589Z,5.80
2018-01-17T01:11:20.817Z,5.80
2018-01-17T01:13:49.077Z,5.70
2018-01-17T01:16:17.306Z,5.60
2018-01-17T01:21:15.033Z,5.50
2018-01-17T01:31:12.106Z,5.50
2018-01-17T01:33:41.145Z,5.40
2018-01-17T01:36:10.039Z,5.30
2018-01-17T01:38:39.446Z,5.00
2018-01-17T01:41:07.705Z,4.50
2018-01-17T01:48:35.847Z,3.90
2018-01-17T01:51:04.569Z,3.80
2018-01-17T01:53:32.853Z,3.80
2018-01-17T01:56:01.114Z,3.80
2018-01-17T01:58:30.555Z,3.80
2018-01-17T02:01:00.813Z,3.80
2018-01-17T02:03:29.070Z,3.80
2018-01-17T02:05:57.361Z,3.80
2018-01-17T02:08:25.633Z,3.80
2018-01-17T02:10:54.645Z,3.80
2018-01-17T02:13:22.977Z,3.70
2018-01-17T02:15:51.287Z,3.80
2018-01-17T02:23:19.288Z,3.90
2018-01-17T02:25:47.531Z,3.90
2018-01-17T02:28:16.214Z,3.90
2018-01-17T02:30:44.467Z,4.00
2018-01-17T02:33:12.692Z,4.00
2018-01-17T02:38:10.437Z,4.20
2018-01-17T02:43:08.911Z,4.20
2018-01-17T02:45:37.167Z,4.20
2018-01-17T02:48:05.422Z,4.30
2018-01-17T02:50:33.707Z,4.30
2018-01-17T02:53:03.484Z,4.30
2018-01-17T02:55:32.312Z,4.20
2018-01-17T02:58:00.974Z,4.30
2018-01-17T03:00:29.196Z,4.20
2018-01-17T03:02:57.429Z,4.30
2018-01-17T03:05:25.696Z,4.20
2018-01-17T03:07:53.920Z,4.10
2018-01-17T03:10:22.159Z,4.20
2018-01-17T03:12:56.174Z,4.10
2018-01-17T03:15:24.410Z,4.20
2018-01-17T03:17:53.052Z,4.10
2018-01-17T03:20:23.260Z,4.10
2018-01-17T03:22:53.003Z,4.10
2018-01-17T03:25:22.795Z,4.10
2018-01-17T03:27:51.043Z,4.20
2018-01-17T03:30:19.270Z,4.20
2018-01-17T03:32:47.529Z,4.20
2018-01-17T03:35:15.765Z,4.20
2018-01-17T03:37:44.774Z,4.20
2018-01-17T03:40:13.032Z,4.20
2018-01-17T03:45:11.121Z,4.20
2018-01-17T03:47:39.697Z,4.20
2018-01-17T03:50:09.452Z,4.10
2018-01-17T03:52:37.697Z,4.10
2018-01-17T03:55:05.971Z,4.10
2018-01-17T03:57:34.232Z,4.20
2018-01-17T04:00:02.513Z,4.20
2018-01-17T04:02:30.797Z,4.10
2018-01-17T04:07:29.240Z,4.20
2018-01-17T04:09:58.644Z,4.10
2018-01-17T04:12:26.881Z,4.20
2018-01-17T04:14:55.508Z,4.20
2018-01-17T04:17:24.556Z,4.10
2018-01-17T04:19:52.817Z,4.30
2018-01-17T04:22:21.070Z,4.30
2018-01-17T04:24:50.878Z,4.30
2018-01-17T04:29:49.031Z,4.30
2018-01-17T04:32:17.296Z,4.20
2018-01-17T04:34:45.539Z,4.20
2018-01-17T04:37:13.778Z,4.20
2018-01-17T04:39:42.064Z,4.20
2018-01-17T04:42:10.290Z,4.20
2018-01-17T04:44:38.542Z,4.20
2018-01-17T04:47:06.852Z,4.10
2018-01-17T04:49:35.109Z,4.10
2018-01-17T04:52:04.888Z,4.20
2018-01-17T04:54:33.192Z,4.30
2018-01-17T04:57:01.446Z,4.20
2018-01-17T05:02:00.740Z,4.10
2018-01-17T05:04:29.737Z,4.10
2018-01-17T05:06:59.468Z,4.10
2018-01-17T05:09:28.872Z,4.20
2018-01-17T05:11:57.100Z,4.10
2018-01-17T05:14:25.340Z,4.10
2018-01-17T05:16:53.616Z,4.20
2018-01-17T05:19:23.344Z,4.10
2018-01-17T05:21:51.572Z,4.10
2018-01-17T05:24:20.631Z,4.10
2018-01-17T05:26:50.013Z,4.10
2018-01-17T05:29:19.032Z,4.10
2018-01-17T05:31:48.457Z,4.00
2018-01-17T05:34:17.127Z,4.00
2018-01-17T05:36:46.149Z,4.00
2018-01-17T05:39:14.432Z,3.90
2018-01-17T05:41:43.424Z,3.90
2018-01-17T05:44:12.421Z,3.80
2018-01-17T05:49:10.576Z,3.80
2018-01-17T05:51:38.820Z,3.80
2018-01-17T05:54:07.144Z,3.80
2018-01-17T05:56:35.398Z,3.80
2018-01-17T05:59:03.657Z,3.80
2018-01-17T06:01:31.921Z,3.80
2018-01-17T06:04:00.152Z,3.80
2018-01-17T06:06:28.381Z,3.90
2018-01-17T06:08:56.644Z,3.90
2018-01-17T06:11:26.012Z,3.90
2018-01-17T06:13:54.252Z,3.90
2018-01-17T06:16:22.538Z,3.80
2018-01-17T06:21:20.233Z,3.80
2018-01-17T06:23:49.287Z,3.80
2018-01-17T06:26:18.323Z,3.90
2018-01-17T06:28:46.570Z,3.90
2018-01-17T06:33:44.773Z,3.90
2018-01-17T06:36:13.005Z,4.00
2018-01-17T06:38:41.279Z,4.00
2018-01-17T06:41:09.517Z,4.00
2018-01-17T06:43:39.274Z,3.90
2018-01-17T06:46:07.536Z,3.90
2018-01-17T06:48:35.780Z,3.80
2018-01-17T06:51:04.124Z,3.80
2018-01-17T06:53:32.381Z,3.80
2018-01-17T06:56:00.615Z,3.90
2018-01-17T06:58:28.849Z,3.90
2018-01-17T07:03:26.982Z,3.90
2018-01-17T07:05:55.209Z,3.90
2018-01-17T07:08:23.473Z,3.90
2018-01-17T07:15:50.712Z,3.90
2018-01-17T07:18:18.960Z,3.90
2018-01-17T07:20:47.965Z,3.90
2018-01-17T07:23:16.248Z,3.80
2018-01-17T07:25:45.252Z,3.80
2018-01-17T07:28:13.477Z,3.80
2018-01-17T07:30:41.752Z,3.80
2018-01-17T07:33:09.977Z,3.80
2018-01-17T07:35:38.208Z,3.80
2018-01-17T07:38:07.967Z,3.80
2018-01-17T07:40:36.595Z,3.80
2018-01-17T07:43:04.856Z,3.80
2018-01-17T07:48:03.013Z,3.70
2018-01-17T07:50:32.008Z,3.70
2018-01-17T07:53:02.036Z,3.70
2018-01-17T07:55:30.268Z,3.60
2018-01-17T07:57:58.500Z,3.70
2018-01-17T08:00:26.788Z,3.70
2018-01-17T08:02:55.013Z,3.70
2018-01-17T08:05:23.251Z,3.70
2018-01-17T08:07:53.038Z,3.70
2018-01-17T08:10:21.272Z,3.80
2018-01-17T08:12:49.542Z,3.80
2018-01-17T08:15:17.873Z,3.90
2018-01-17T08:20:16.413Z,3.80
2018-01-17T08:22:44.729Z,3.90
2018-01-17T08:25:13.733Z,3.80
2018-01-17T08:27:41.960Z,3.80
2018-01-17T08:30:10.221Z,3.90
2018-01-17T08:32:38.461Z,3.90
2018-01-17T08:35:08.200Z,3.90
2018-01-17T08:40:06.329Z,3.90
2018-01-17T08:42:34.575Z,3.90
2018-01-17T08:45:02.860Z,3.80
2018-01-17T08:47:31.879Z,3.90
2018-01-17T08:50:00.864Z,3.90
2018-01-17T08:52:29.121Z,4.00
2018-01-17T08:54:57.360Z,4.00
2018-01-17T08:57:25.602Z,4.00
2018-01-17T08:59:53.886Z,4.10
2018-01-17T09:02:22.113Z,4.10
2018-01-17T09:04:50.394Z,4.20
2018-01-17T09:07:18.681Z,4.30
2018-01-17T09:12:17.965Z,4.50
2018-01-17T09:14:47.744Z,4.60
2018-01-17T09:17:15.985Z,4.60
2018-01-17T09:19:44.270Z,4.70
2018-01-17T09:22:12.496Z,4.70
2018-01-17T09:24:40.738Z,4.70
2018-01-17T09:27:10.508Z,4.70
2018-01-17T09:29:38.769Z,4.80
2018-01-17T09:32:07.732Z,4.80
2018-01-17T09:34:36.001Z,4.80
2018-01-17T09:37:05.378Z,4.80
2018-01-17T09:39:33.635Z,4.80
2018-01-17T09:42:01.905Z,4.80
2018-01-17T09:47:01.104Z,5.00
2018-01-17T09:49:29.375Z,5.10
2018-01-17T09:54:28.197Z,5.40
2018-01-17T09:56:56.955Z,5.50
2018-01-17T10:01:54.628Z,5.50
2018-01-17T10:04:22.909Z,5.50
2018-01-17T10:06:51.151Z,5.50
2018-01-17T10:09:19.372Z,5.50
2018-01-17T10:11:48.447Z,5.40
2018-01-17T10:14:16.704Z,5.40
2018-01-17T10:16:44.960Z,5.30
2018-01-17T10:19:13.233Z,5.30
2018-01-17T10:21:41.456Z,5.20
2018-01-17T10:24:09.676Z,5.20
2018-01-17T10:26:37.951Z,5.20
2018-01-17T10:29:07.327Z,5.10
2018-01-17T10:34:05.490Z,5.00
2018-01-17T10:36:33.734Z,4.90
2018-01-17T10:39:01.964Z,4.90
2018-01-17T10:41:31.736Z,4.80
2018-01-17T10:43:59.978Z,4.70
2018-01-17T10:46:28.213Z,4.80
2018-01-17T10:48:57.255Z,4.70
2018-01-17T10:51:26.247Z,4.70
2018-01-17T10:53:55.250Z,4.70
2018-01-17T10:56:24.649Z,4.70
2018-01-17T10:58:52.879Z,4.70
2018-01-17T11:08:49.994Z,4.70
2018-01-17T11:11:19.030Z,4.70
2018-01-17T11:13:47.292Z,4.70
2018-01-17T11:16:15.530Z,4.70
2018-01-17T11:18:43.844Z,4.70
2018-01-17T11:21:12.093Z,4.70
2018-01-17T11:23:40.328Z,4.70
2018-01-17T11:26:08.630Z,4.80
2018-01-17T11:28:38.051Z,4.80
2018-01-17T11:31:07.048Z,4.90
2018-01-17T11:33:36.076Z,4.90
2018-01-17T11:36:05.813Z,5.00
2018-01-17T11:38:34.818Z,5.00
2018-01-17T11:41:03.088Z,5.10
2018-01-17T11:43:31.320Z,5.10
2018-01-17T11:48:29.849Z,5.20
2018-01-17T11:50:58.093Z,5.20
2018-01-17T11:53:27.098Z,5.30
2018-01-17T11:55:55.367Z,5.40
2018-01-17T11:58:23.579Z,5.40
2018-01-17T12:00:51.823Z,5.40
2018-01-17T12:03:20.093Z,5.40
2018-01-17T12:05:48.321Z,5.30
2018-01-17T12:08:16.553Z,5.30
2018-01-17T12:10:45.332Z,5.20
2018-01-17T12:13:13.985Z,5.30
2018-01-17T12:15:42.230Z,5.30
2018-01-17T12:20:40.776Z,5.40
2018-01-17T12:23:09.019Z,5.50
2018-01-17T12:25:37.274Z,5.40
2018-01-17T12:30:35.758Z,5.50
2018-01-17T12:33:04.785Z,5.50
2018-01-17T12:35:33.016Z,5.50
2018-01-17T12:38:01.245Z,5.70
2018-01-17T12:40:31.031Z,5.90
2018-01-17T12:42:59.268Z,6.10
2018-01-17T12:45:27.532Z,6.20
2018-01-17T12:47:55.803Z,6.30
2018-01-17T12:50:24.047Z,6.50
2018-01-17T12:52:52.281Z,6.60
2018-01-17T12:55:20.544Z,6.70
2018-01-17T12:57:48.776Z,6.90
2018-01-17T13:02:47.305Z,6.90
2018-01-17T13:05:17.054Z,6.90
2018-01-17T13:07:45.284Z,6.70
2018-01-17T13:12:43.417Z,6.50
2018-01-17T13:15:12.796Z,6.40
2018-01-17T13:17:41.089Z,6.30
2018-01-17T13:20:09.350Z,6.30
2018-01-17T13:22:39.132Z,6.30
2018-01-17T13:25:07.463Z,6.10
2018-01-17T13:27:35.706Z,6.10
2018-01-17T13:30:03.947Z,6.10
2018-01-17T13:35:01.673Z,6.10
2018-01-17T13:37:29.901Z,6.00
2018-01-17T13:39:58.165Z,6.00
2018-01-17T13:44:56.652Z,5.90
2018-01-17T13:47:24.912Z,5.70
2018-01-17T13:49:53.141Z,5.70
2018-01-17T13:52:21.368Z,5.60
2018-01-17T13:54:50.403Z,5.50
2018-01-17T13:57:19.521Z,5.40
2018-01-17T13:59:48.899Z,5.40
2018-01-17T14:02:17.182Z,5.40
2018-01-17T14:04:46.964Z,5.40
2018-01-17T14:07:15.188Z,5.30
2018-01-17T14:12:13.323Z,5.30
2018-01-17T14:17:11.508Z,5.20
2018-01-17T14:19:40.546Z,5.30
2018-01-17T14:22:08.833Z,5.30
2018-01-17T14:24:38.232Z,5.30
2018-01-17T14:27:06.464Z,5.30
2018-01-17T14:29:34.692Z,5.30
2018-01-17T14:32:03.296Z,5.30
2018-01-17T14:37:02.497Z,5.40
2018-01-17T14:39:31.521Z,5.40
2018-01-17T14:42:00.518Z,5.40
2018-01-17T14:46:58.648Z,5.60
2018-01-17T14:49:27.291Z,5.60
2018-01-17T14:51:57.023Z,5.70
2018-01-17T14:54:25.747Z,5.70
2018-01-17T14:56:53.969Z,5.80
2018-01-17T14:59:22.215Z,5.80
2018-01-17T15:01:50.464Z,5.80
2018-01-17T15:04:19.828Z,5.80
2018-01-17T15:06:48.140Z,5.80
2018-01-17T15:09:17.085Z,5.80
2018-01-17T15:14:14.783Z,5.80
2018-01-17T15:16:43.084Z,5.80
2018-01-17T15:19:11.348Z,5.80
2018-01-17T15:24:10.671Z,5.80
2018-01-17T15:29:08.831Z,5.80
2018-01-17T15:31:37.119Z,5.80
2018-01-17T15:34:05.501Z,5.80
2018-01-17T15:36:33.738Z,5.80
2018-01-17T15:41:31.465Z,5.80
2018-01-17T15:44:00.483Z,5.90
2018-01-17T15:46:29.880Z,5.90
2018-01-17T15:48:58.508Z,5.90
2018-01-17T15:51:26.741Z,5.90
2018-01-17T15:53:55.006Z,5.90
2018-01-17T15:56:23.992Z,6.00
2018-01-17T15:58:52.220Z,6.00
2018-01-17T16:01:20.481Z,5.90
2018-01-17T16:03:49.476Z,6.00
2018-01-17T16:06:18.471Z,6.00
2018-01-17T16:11:16.691Z,6.00
2018-01-17T16:13:44.924Z,6.00
2018-01-17T16:18:43.494Z,6.00
2018-01-17T16:21:11.760Z,6.00
2018-01-17T16:23:40.076Z,6.00
2018-01-17T16:26:09.521Z,6.00
2018-01-17T16:28:37.774Z,6.00
2018-01-17T16:31:06.033Z,6.00
2018-01-17T16:33:34.268Z,6.00
2018-01-17T16:36:02.504Z,6.00
2018-01-17T16:38:31.915Z,6.00
2018-01-17T16:41:00.913Z,6.00
2018-01-17T16:43:29.145Z,6.00
2018-01-17T16:45:58.175Z,6.00
2018-01-17T16:55:56.509Z,6.00
2018-01-17T16:58:24.759Z,6.00
2018-01-17T17:00:53.035Z,6.10
2018-01-17T17:03:21.266Z,6.10
2018-01-17T17:05:49.492Z,6.00
2018-01-17T17:08:17.756Z,6.10
2018-01-17T17:10:46.032Z,6.10
2018-01-17T17:13:14.275Z,6.10
2018-01-17T17:15:42.558Z,6.10
2018-01-17T17:20:40.686Z,6.10
2018-01-17T17:23:08.984Z,6.10
2018-01-17T17:25:38.004Z,6.20
2018-01-17T17:28:06.228Z,6.20
2018-01-17T17:30:34.496Z,6.10
2018-01-17T17:33:04.232Z,6.10
2018-01-17T17:38:02.572Z,6.20
2018-01-17T17:40:31.589Z,6.20
2018-01-17T17:43:00.619Z,6.10
2018-01-17T17:45:29.613Z,6.10
2018-01-17T17:47:57.858Z,6.10
2018-01-17T17:52:55.613Z,6.10
2018-01-17T17:55:23.844Z,6.10
2018-01-17T17:57:52.128Z,6.00
2018-01-17T18:00:20.355Z,6.00
2018-01-17T18:02:49.995Z,6.00
2018-01-17T18:05:18.649Z,5.90
2018-01-17T18:07:47.649Z,5.90
2018-01-17T18:10:15.913Z,6.00
2018-01-17T18:12:44.241Z,6.10
2018-01-17T18:15:12.493Z,6.00
2018-01-17T18:17:40.739Z,5.90
2018-01-17T18:20:10.553Z,6.00
2018-01-17T18:22:38.800Z,6.00
2018-01-17T18:25:07.053Z,6.00
2018-01-17T18:27:35.311Z,5.90
2018-01-17T18:30:03.549Z,6.00
2018-01-17T18:32:31.791Z,6.00
2018-01-17T18:35:00.075Z,5.90
2018-01-17T18:37:29.082Z,5.90
2018-01-17T18:39:58.112Z,6.00
2018-01-17T18:42:27.533Z,6.00
2018-01-17T18:44:55.769Z,6.00
2018-01-17T18:47:24.765Z,5.90
2018-01-17T18:49:53.797Z,5.90
2018-01-17T18:52:24.661Z,5.90
2018-01-17T18:54:53.967Z,5.90
2018-01-17T18:57:22.220Z,5.90
2018-01-17T18:59:50.445Z,5.90
2018-01-17T19:02:18.710Z,5.80
2018-01-17T19:07:16.400Z,5.90
2018-01-17T19:09:45.429Z,5.80
2018-01-17T19:14:43.270Z,5.80
2018-01-17T19:17:12.347Z,5.80
2018-01-17T19:19:41.732Z,5.80
2018-01-17T19:22:10.007Z,5.80
2018-01-17T19:24:39.431Z,5.80
2018-01-17T19:27:07.702Z,5.80
2018-01-17T19:29:36.693Z,5.80
2018-01-17T19:32:05.721Z,5.80
2018-01-17T19:34:33.949Z,5.70
2018-01-17T19:37:02.180Z,5.70
2018-01-17T19:42:08.105Z,5.70
2018-01-17T19:44:37.149Z,5.80
2018-01-17T19:47:05.386Z,5.70
2018-01-17T19:49:35.154Z,5.80
2018-01-17T19:52:04.915Z,5.80
2018-01-17T19:54:33.190Z,5.80
2018-01-17T19:57:01.404Z,5.80
2018-01-17T19:59:29.689Z,5.80
2018-01-17T20:01:59.086Z,5.80
2018-01-17T20:04:28.127Z,5.80
2018-01-17T20:06:57.228Z,5.70
2018-01-17T20:09:25.442Z,5.70
2018-01-17T20:11:53.710Z,5.80
2018-01-17T20:14:21.968Z,5.70
2018-01-17T20:16:50.196Z,5.80
2018-01-17T20:19:18.429Z,5.80
2018-01-17T20:21:46.690Z,5.80
2018-01-17T20:24:16.103Z,5.80
2018-01-17T20:26:44.361Z,5.80
2018-01-17T20:29:12.678Z,5.80
2018-01-17T20:31:40.904Z,5.80
2018-01-17T20:34:09.208Z,5.80
2018-01-17T20:36:37.522Z,5.80
2018-01-17T20:39:07.975Z,5.80
2018-01-17T20:44:11.783Z,5.90
2018-01-17T20:46:40.079Z,5.90
2018-01-17T20:49:10.503Z,5.90
2018-01-17T20:51:39.190Z,5.90
2018-01-17T20:54:07.439Z,5.90
2018-01-17T20:56:35.661Z,5.80
2018-01-17T20:59:03.930Z,5.80
2018-01-17T21:01:33.665Z,5.70
2018-01-17T21:06:31.852Z,5.70
2018-01-17T21:09:00.126Z,5.70
2018-01-17T21:13:59.130Z,5.60
2018-01-17T21:16:27.409Z,5.60
2018-01-17T21:18:57.301Z,5.60
2018-01-17T21:21:27.126Z,5.60
2018-01-17T21:23:55.371Z,5.60
2018-01-17T21:26:23.670Z,5.60
2018-01-17T21:31:22.166Z,5.60
2018-01-17T21:33:51.161Z,5.60
2018-01-17T21:36:19.427Z,5.60
2018-01-17T21:43:52.990Z,5.70
2018-01-17T21:46:22.396Z,5.70
2018-01-17T21:48:50.626Z,5.70
2018-01-17T21:51:18.947Z,5.70
2018-01-17T21:53:47.169Z,5.70
2018-01-17T21:58:47.472Z,5.70
2018-01-17T22:03:45.164Z,5.80
2018-01-17T22:06:13.704Z,5.90
2018-01-17T22:11:11.911Z,5.80
2018-01-17T22:13:41.008Z,5.80
2018-01-17T22:16:09.305Z,5.80
2018-01-17T22:18:37.598Z,5.80
2018-01-17T22:21:07.467Z,5.80
2018-01-17T22:23:35.745Z,5.80
2018-01-17T22:26:04.641Z,5.80
2018-01-17T22:28:33.685Z,5.80
2018-01-17T22:31:01.912Z,5.80
2018-01-17T22:33:30.186Z,5.80
2018-01-17T22:35:58.470Z,5.80
2018-01-17T22:38:26.711Z,5.80
2018-01-17T22:40:54.945Z,5.70
2018-01-17T22:43:24.724Z,5.70
2018-01-17T22:45:52.957Z,5.70
2018-01-17T22:50:52.139Z,5.80
2018-01-17T22:53:20.763Z,5.80
2018-01-17T23:00:48.964Z,5.90
2018-01-17T23:03:17.197Z,5.90
2018-01-17T23:05:45.460Z,5.90
2018-01-17T23:08:13.717Z,5.90
2018-01-17T23:10:41.962Z,5.90
2018-01-17T23:15:40.502Z,6.00
2018-01-17T23:18:08.764Z,6.00
2018-01-17T23:20:37.038Z,5.90
2018-01-17T23:23:06.505Z,6.00
2018-01-17T23:28:05.074Z,6.00
2018-01-17T23:30:33.305Z,6.00
2018-01-17T23:33:01.537Z,6.00
2018-01-17T23:35:29.815Z,6.00
2018-01-17T23:37:58.826Z,6.00
2018-01-17T23:40:27.821Z,6.00
2018-01-17T23:42:56.861Z,6.00
2018-01-17T23:45:25.111Z,6.10
2018-01-17T23:47:53.357Z,6.00
2018-01-17T23:50:21.847Z,6.10
2018-01-17T23:57:50.281Z,6.10
